createdAt,value
2016-12-05T12:33:17.467Z,14.45
2016-12-05T12:33:57.942Z,14.64
2016-12-05T12:34:38.600Z,17.35
2016-12-05T12:39:19.130Z,18.55
2016-12-05T12:39:59.540Z,18.36
2016-12-05T12:43:07.859Z,21.36
2016-12-05T12:43:48.321Z,19.52
2016-12-05T12:50:11.535Z,13.48
2016-12-05T12:52:12.567Z,13.76
2016-12-05T12:53:03.607Z,13.95
2016-12-05T12:53:43.927Z,14.53
2016-12-05T12:54:24.389Z,15.39
2016-12-05T12:55:04.959Z,15.59
2016-12-05T12:55:45.446Z,15.78
2016-12-05T12:56:25.948Z,15.2
2016-12-05T12:57:06.416Z,15.59
2016-12-05T12:57:46.954Z,15.2
2016-12-05T12:58:27.424Z,15.19
2016-12-05T12:59:07.891Z,14.71
2016-12-05T12:59:48.363Z,15.01
2016-12-05T13:00:29.707Z,14.9
2016-12-05T13:01:10.301Z,14.71
2016-12-05T13:01:50.736Z,14.71
2016-12-05T13:02:31.295Z,14.72
2016-12-05T13:03:11.757Z,14.81
2016-12-05T13:03:52.230Z,14.9
2016-12-05T13:04:32.736Z,14.32
2016-12-05T13:05:13.383Z,14.14
2016-12-05T13:05:54.024Z,13.94
2016-12-05T13:06:34.519Z,14.04
2016-12-05T13:07:14.998Z,13.28
2016-12-05T13:07:55.497Z,13.47
2016-12-05T13:08:36.043Z,13.85
2016-12-05T13:09:21.504Z,13.75
2016-12-05T13:10:02.100Z,14.23
2016-12-05T13:10:42.543Z,14.71
2016-12-05T13:11:23.030Z,14.32
2016-12-05T13:12:03.488Z,15.09
2016-12-05T13:12:44.106Z,14.62
2016-12-05T13:13:24.628Z,14.81
2016-12-05T13:14:05.124Z,15.11
2016-12-05T13:14:45.668Z,15.48
2016-12-05T13:15:26.159Z,15.29
2016-12-05T13:16:06.682Z,15.09
2016-12-05T13:16:47.196Z,15.09
2016-12-05T13:17:27.677Z,14.81
2016-12-05T13:18:11.189Z,14.9
2016-12-05T13:19:10.415Z,13.65
2016-12-05T13:19:50.876Z,13.75
2016-12-05T13:20:31.362Z,13.85
2016-12-05T13:21:11.822Z,13.85
2016-12-05T13:21:52.666Z,13.85
2016-12-05T13:22:32.981Z,13.08
2016-12-05T13:23:13.505Z,12.6
2016-12-05T13:23:53.953Z,12.5
2016-12-05T13:24:34.402Z,13.94
2016-12-05T13:25:14.866Z,13.94
2016-12-05T13:25:55.329Z,14.32
2016-12-05T13:26:35.832Z,16.85
2016-12-05T13:27:16.910Z,17.33
2016-12-05T13:27:59.838Z,13.1
2016-12-05T13:30:29.589Z,13.85
2016-12-05T13:31:10.905Z,14.24
2016-12-05T13:32:01.323Z,14.62
2016-12-05T13:32:41.733Z,14.43
2016-12-05T13:33:22.243Z,14.72
2016-12-05T13:53:05.054Z,14.18
2016-12-05T13:53:45.540Z,13.89
2016-12-05T13:54:25.999Z,13.98
2016-12-05T13:55:06.450Z,14.28
2016-12-05T13:55:46.930Z,13.98
2016-12-05T13:56:27.400Z,13.79
2016-12-05T13:57:07.958Z,14.47
2016-12-05T13:57:48.541Z,14.37
2016-12-05T13:58:29.067Z,14.37
2016-12-05T13:59:09.540Z,14.56
2016-12-05T13:59:50.028Z,14.76
2016-12-05T14:00:30.558Z,15.14
2016-12-05T14:01:11.050Z,15.04
2016-12-05T14:01:51.509Z,14.94
2016-12-05T14:02:31.981Z,15.81
2016-12-05T14:03:12.483Z,15.52
2016-12-05T14:03:53.070Z,15.42
2016-12-05T14:04:34.129Z,15.23
2016-12-05T14:05:14.680Z,15.52
2016-12-05T14:05:55.210Z,15.52
2016-12-05T14:06:35.677Z,15.61
2016-12-05T14:07:16.149Z,16.09
2016-12-05T14:07:56.609Z,16.67
2016-12-05T14:08:37.190Z,16.77
2016-12-05T14:09:17.978Z,16.19
2016-12-05T14:09:58.469Z,16.19
2016-12-05T14:10:40.083Z,16.47
2016-12-05T14:11:20.526Z,16.28
2016-12-05T14:12:01.040Z,15.7
2016-12-05T14:12:45.828Z,15.7
2016-12-05T14:13:26.287Z,15.9
2016-12-05T14:15:39.589Z,16.28
2016-12-05T14:16:20.092Z,15.8
2016-12-05T14:17:00.581Z,15.99
